Eliporto di emergenza

METAR LIBD TAF LIBD
33 °C
°C
/
°C
19m
Wiek
16:09:01
LT
14:09
UTC
0 ft

1.000

2.000

3.000

4.000

5.000

VFR
<?= Yii::t('app', 'Wind direction') ?> <?= Yii::t('app', 'of'); ?>
070°
20:25
Zachód słońca
46%
Wilgotność
Siła wiatru
Zamknięte/Śnieg
Zasięg wzroku na RWY
Stan RWY
Widzialność pionowa
Min. widoczność
CAVOK
Trend
Korekta
Raport specjalny
1009 hPa
QNH
METAR LIBD 131350Z 07013KT CAVOK 33/20 Q1009
Niebo czyste
0 kt
0 kt
16:00
VFR
10 kt
17:00
VFR
10 kt
18:00
VFR
10 kt
19:00
VFR
10 kt
20:00
VFR
10 kt
21:00
VFR
10 kt
22:00
VFR
5 kt
10 km+
Widoczność
Brak
Sufit
13 kt
Wiatr
metar-taf.com/IT-0584

Metar-Taf.com

Dekoder wizualny